createdAt,value
2022-09-18T00:02:25.129Z,11.80
2022-09-18T00:04:54.515Z,11.80
2022-09-18T00:07:22.831Z,11.80
2022-09-18T00:09:51.086Z,11.80
2022-09-18T00:12:21.001Z,11.80
2022-09-18T00:14:49.372Z,11.90
2022-09-18T00:17:17.852Z,11.80
2022-09-18T00:19:46.402Z,11.80
2022-09-18T00:22:15.102Z,11.80
2022-09-18T00:24:43.538Z,11.80
2022-09-18T00:27:11.880Z,11.70
2022-09-18T00:29:41.696Z,11.70
2022-09-18T00:32:09.971Z,11.80
2022-09-18T00:34:39.661Z,11.70
2022-09-18T00:37:08.362Z,11.70
2022-09-18T00:39:36.720Z,11.80
2022-09-18T00:42:05.284Z,11.80
2022-09-18T00:44:38.745Z,11.70
2022-09-18T00:47:31.366Z,11.70
2022-09-18T00:50:08.060Z,11.70
2022-09-18T00:52:47.912Z,11.70
2022-09-18T00:55:17.594Z,11.70
2022-09-18T00:57:54.605Z,11.70
2022-09-18T01:00:23.428Z,11.80
2022-09-18T01:02:53.543Z,11.80
2022-09-18T01:05:30.564Z,11.80
2022-09-18T01:08:17.244Z,11.80
2022-09-18T01:11:00.493Z,11.80
2022-09-18T01:13:36.458Z,11.90
2022-09-18T01:16:10.680Z,11.90
2022-09-18T01:18:48.322Z,11.90
2022-09-18T01:21:18.587Z,12.00
2022-09-18T01:24:20.428Z,12.00
2022-09-18T01:26:55.432Z,11.90
2022-09-18T01:29:35.926Z,11.80
2022-09-18T01:32:10.893Z,11.80
2022-09-18T01:34:46.673Z,11.80
2022-09-18T01:37:21.558Z,11.70
2022-09-18T01:39:57.138Z,11.70
2022-09-18T01:42:28.327Z,11.70
2022-09-18T01:45:02.261Z,11.60
2022-09-18T01:47:37.047Z,11.60
2022-09-18T01:50:08.845Z,11.60
2022-09-18T01:52:40.632Z,11.60
2022-09-18T01:55:14.929Z,11.60
2022-09-18T01:57:50.279Z,11.60
2022-09-18T02:00:21.759Z,11.60
2022-09-18T02:02:55.871Z,11.60
2022-09-18T02:05:31.174Z,11.60
2022-09-18T02:08:10.358Z,11.60
2022-09-18T02:10:44.572Z,11.60
2022-09-18T02:13:19.653Z,11.60
2022-09-18T02:15:50.995Z,11.60
2022-09-18T02:18:28.374Z,11.60
2022-09-18T02:21:00.043Z,11.70
2022-09-18T02:23:30.016Z,11.60
2022-09-18T02:26:02.526Z,11.60
2022-09-18T02:28:32.764Z,11.50
2022-09-18T02:31:03.535Z,11.50
2022-09-18T02:33:34.785Z,11.50
2022-09-18T02:36:19.499Z,11.50
2022-09-18T02:38:56.613Z,11.50
2022-09-18T02:41:34.257Z,11.50
2022-09-18T02:44:10.334Z,11.40
2022-09-18T02:46:49.877Z,11.50
2022-09-18T02:49:29.233Z,11.50
2022-09-18T02:52:03.694Z,11.50
2022-09-18T02:54:42.032Z,11.50
2022-09-18T02:57:16.118Z,11.50
2022-09-18T02:59:49.092Z,11.50
2022-09-18T03:02:22.942Z,11.50
2022-09-18T03:04:52.220Z,11.50
2022-09-18T03:07:46.753Z,11.50
2022-09-18T03:10:15.233Z,11.50
2022-09-18T03:12:43.947Z,11.60
2022-09-18T03:15:13.193Z,11.60
2022-09-18T03:17:47.598Z,11.50
2022-09-18T03:20:16.329Z,11.50
2022-09-18T03:22:44.831Z,11.50
2022-09-18T03:25:14.559Z,11.50
2022-09-18T03:27:44.275Z,11.50
2022-09-18T03:30:17.638Z,11.50
2022-09-18T03:32:47.777Z,11.50
2022-09-18T03:35:18.074Z,11.50
2022-09-18T03:37:47.930Z,11.50
2022-09-18T03:40:21.375Z,11.50
2022-09-18T03:42:51.728Z,11.50
2022-09-18T03:45:20.299Z,11.50
2022-09-18T03:47:50.643Z,11.40
2022-09-18T03:50:19.385Z,11.40
2022-09-18T03:52:51.575Z,11.40
2022-09-18T03:55:40.510Z,11.40
2022-09-18T03:58:27.564Z,11.40
2022-09-18T04:01:09.041Z,11.50
2022-09-18T04:03:59.346Z,11.40
2022-09-18T04:07:07.310Z,11.50
2022-09-18T04:09:42.045Z,11.40
2022-09-18T04:12:10.797Z,11.40
2022-09-18T04:14:40.313Z,11.40
2022-09-18T04:17:09.430Z,11.40
2022-09-18T04:19:39.261Z,11.40
2022-09-18T04:22:10.933Z,11.40
2022-09-18T04:24:40.810Z,11.40
2022-09-18T04:27:10.166Z,11.40
2022-09-18T04:29:40.283Z,11.40
2022-09-18T04:32:10.213Z,11.40
2022-09-18T04:34:40.576Z,11.40
2022-09-18T04:37:11.286Z,11.40
2022-09-18T04:39:40.826Z,11.40
2022-09-18T04:42:10.850Z,11.40
2022-09-18T04:44:40.327Z,11.40
2022-09-18T04:47:11.254Z,11.30
2022-09-18T04:49:41.501Z,11.30
2022-09-18T04:52:12.100Z,11.30
2022-09-18T04:54:42.450Z,11.30
2022-09-18T04:57:11.417Z,11.30
2022-09-18T04:59:40.222Z,11.40
2022-09-18T05:02:10.178Z,11.30
2022-09-18T05:04:38.821Z,11.40
2022-09-18T05:07:19.404Z,11.40
2022-09-18T05:09:48.077Z,11.40
2022-09-18T05:12:17.290Z,11.40
2022-09-18T05:14:46.930Z,11.40
2022-09-18T05:17:19.348Z,11.40
2022-09-18T05:20:02.266Z,11.40
2022-09-18T05:22:39.877Z,11.50
2022-09-18T05:25:12.820Z,11.50
2022-09-18T05:27:41.249Z,11.50
2022-09-18T05:30:11.797Z,11.50
2022-09-18T05:32:59.174Z,11.60
2022-09-18T05:35:30.606Z,11.60
2022-09-18T05:38:03.003Z,11.60
2022-09-18T05:40:34.685Z,11.60
2022-09-18T05:43:04.166Z,11.60
2022-09-18T05:45:34.880Z,11.60
2022-09-18T05:48:08.718Z,11.60
2022-09-18T05:50:40.573Z,11.60
2022-09-18T05:53:15.224Z,11.60
2022-09-18T05:56:03.127Z,11.60
2022-09-18T05:58:32.774Z,11.60
2022-09-18T06:01:04.753Z,11.60
2022-09-18T06:04:00.221Z,11.60
2022-09-18T06:06:31.720Z,11.50
2022-09-18T06:09:02.599Z,11.60
2022-09-18T06:11:31.357Z,11.60
2022-09-18T06:14:00.398Z,11.60
2022-09-18T06:16:29.008Z,11.60
2022-09-18T06:19:01.858Z,11.60
2022-09-18T06:21:30.415Z,11.60
2022-09-18T06:23:59.953Z,11.60
2022-09-18T06:26:39.171Z,11.60
2022-09-18T06:29:08.913Z,11.60
2022-09-18T06:31:56.356Z,11.60
2022-09-18T06:34:27.407Z,11.70
2022-09-18T06:36:59.803Z,11.60
2022-09-18T06:39:48.389Z,11.70
2022-09-18T06:42:30.677Z,11.70
2022-09-18T06:45:10.201Z,11.60
2022-09-18T06:47:40.010Z,11.70
2022-09-18T06:50:10.369Z,11.70
2022-09-18T06:52:39.467Z,11.60
2022-09-18T06:55:08.886Z,11.70
2022-09-18T06:57:39.000Z,11.70
2022-09-18T07:00:11.023Z,11.70
2022-09-18T07:02:40.613Z,11.70
2022-09-18T07:05:46.725Z,11.80
2022-09-18T07:08:27.979Z,11.70
2022-09-18T07:11:04.415Z,11.80
2022-09-18T07:13:37.673Z,11.80
2022-09-18T07:16:08.301Z,11.90
2022-09-18T07:18:37.007Z,11.80
2022-09-18T07:21:06.571Z,11.80
2022-09-18T07:23:39.986Z,12.20
2022-09-18T07:26:08.848Z,12.40
2022-09-18T07:28:39.584Z,12.60
2022-09-18T07:31:20.738Z,12.50
2022-09-18T07:33:53.498Z,12.70
2022-09-18T07:36:26.948Z,12.70
2022-09-18T07:38:56.124Z,12.90
2022-09-18T07:41:28.450Z,13.00
2022-09-18T07:43:58.808Z,13.10
2022-09-18T07:46:27.472Z,13.20
2022-09-18T07:49:00.384Z,13.10
2022-09-18T07:51:31.210Z,13.10
2022-09-18T07:54:01.411Z,13.10
2022-09-18T07:56:55.881Z,13.10
2022-09-18T07:59:31.029Z,12.80
2022-09-18T08:02:05.204Z,12.70
2022-09-18T08:04:34.815Z,12.80
2022-09-18T08:07:08.993Z,12.90
2022-09-18T08:09:58.025Z,12.90
2022-09-18T08:12:47.047Z,13.00
2022-09-18T08:15:26.098Z,13.00
2022-09-18T08:18:13.434Z,13.00
2022-09-18T08:20:58.068Z,12.90
2022-09-18T08:23:33.404Z,12.90
2022-09-18T08:26:02.454Z,12.90
2022-09-18T08:28:31.242Z,12.90
2022-09-18T08:31:04.162Z,12.90
2022-09-18T08:33:33.612Z,12.90
2022-09-18T08:36:03.776Z,13.00
2022-09-18T08:38:35.911Z,13.10
2022-09-18T08:41:37.427Z,13.10
2022-09-18T08:44:11.969Z,13.20
2022-09-18T08:46:49.725Z,13.20
2022-09-18T08:49:27.273Z,13.00
2022-09-18T08:52:06.230Z,13.00
2022-09-18T08:54:48.466Z,13.10
2022-09-18T08:57:37.440Z,13.20
2022-09-18T09:00:18.578Z,13.20
2022-09-18T09:02:57.731Z,13.20
2022-09-18T09:05:32.866Z,13.10
2022-09-18T09:08:24.508Z,13.20
2022-09-18T09:11:02.742Z,13.30
2022-09-18T09:14:01.752Z,13.40
2022-09-18T09:16:42.822Z,13.70
2022-09-18T09:19:28.693Z,14.00
2022-09-18T09:22:07.676Z,14.30
2022-09-18T09:24:48.459Z,14.40
2022-09-18T09:27:27.649Z,14.60
2022-09-18T09:30:17.491Z,14.60
2022-09-18T09:33:08.902Z,14.80
2022-09-18T09:36:05.649Z,14.50
2022-09-18T09:38:54.060Z,14.30
2022-09-18T09:41:29.689Z,14.30
2022-09-18T09:44:12.663Z,14.50
2022-09-18T09:47:00.626Z,14.60
2022-09-18T09:49:34.986Z,14.60
2022-09-18T09:52:21.903Z,14.50
2022-09-18T09:54:57.888Z,14.50
2022-09-18T09:57:31.714Z,14.70
2022-09-18T10:00:09.803Z,15.00
2022-09-18T10:03:13.116Z,15.20
2022-09-18T10:05:53.930Z,15.30
2022-09-18T10:08:35.930Z,15.60
2022-09-18T10:11:11.535Z,15.80
2022-09-18T10:13:46.936Z,15.70
2022-09-18T10:16:21.492Z,15.40
2022-09-18T10:18:54.508Z,15.50
2022-09-18T10:21:30.523Z,15.70
2022-09-18T10:24:19.351Z,16.00
2022-09-18T10:27:03.813Z,16.20
2022-09-18T10:29:36.845Z,15.80
2022-09-18T10:32:11.470Z,15.50
2022-09-18T10:34:48.911Z,15.10
2022-09-18T10:37:40.080Z,14.70
2022-09-18T10:40:32.794Z,14.10
2022-09-18T10:43:04.130Z,13.50
2022-09-18T10:45:40.522Z,13.30
2022-09-18T10:48:29.677Z,13.20
2022-09-18T10:51:00.834Z,13.00
2022-09-18T10:53:44.221Z,12.90
2022-09-18T10:56:35.090Z,12.80
2022-09-18T10:59:35.844Z,12.70
2022-09-18T11:02:07.643Z,12.80
2022-09-18T11:04:38.592Z,12.80
2022-09-18T11:07:08.441Z,12.80
2022-09-18T11:09:40.999Z,12.70
2022-09-18T11:12:20.735Z,12.80
2022-09-18T11:14:54.553Z,12.80
2022-09-18T11:17:27.127Z,12.90
2022-09-18T11:19:58.150Z,12.90
2022-09-18T11:23:00.190Z,12.90
2022-09-18T11:25:33.318Z,12.60
2022-09-18T11:28:28.095Z,12.40
2022-09-18T11:31:01.817Z,12.50
2022-09-18T11:33:37.238Z,12.50
2022-09-18T11:36:10.539Z,12.60
2022-09-18T11:38:43.152Z,12.60
2022-09-18T11:41:15.629Z,12.60
2022-09-18T11:44:01.891Z,12.70
2022-09-18T11:46:44.330Z,12.80
2022-09-18T11:49:17.419Z,12.80
2022-09-18T11:51:49.860Z,12.80
2022-09-18T11:54:27.307Z,12.90
2022-09-18T11:57:00.280Z,13.00
2022-09-18T11:59:41.111Z,13.00
2022-09-18T12:02:17.851Z,12.90
2022-09-18T12:04:52.388Z,12.90
2022-09-18T12:07:38.874Z,12.80
2022-09-18T12:10:20.137Z,12.80
2022-09-18T12:12:53.107Z,12.70
2022-09-18T12:15:28.052Z,12.70
2022-09-18T12:18:03.071Z,12.80
2022-09-18T12:20:37.329Z,13.00
2022-09-18T12:23:15.060Z,13.20
2022-09-18T12:25:50.718Z,13.20
2022-09-18T12:28:45.934Z,13.30
2022-09-18T12:31:23.331Z,13.30
2022-09-18T12:33:59.196Z,13.20
2022-09-18T12:36:57.479Z,13.20
2022-09-18T12:39:57.317Z,13.10
2022-09-18T12:46:10.831Z,13.00
2022-09-18T12:49:11.588Z,12.90
2022-09-18T12:52:34.427Z,12.80
2022-09-18T12:55:53.824Z,12.70
2022-09-18T12:58:51.255Z,12.70
2022-09-18T13:01:37.890Z,12.60
2022-09-18T13:04:18.163Z,12.60
2022-09-18T13:06:51.252Z,12.70
2022-09-18T13:09:31.784Z,12.60
2022-09-18T13:12:04.731Z,12.70
2022-09-18T13:14:39.686Z,12.70
2022-09-18T13:17:14.501Z,12.70
2022-09-18T13:19:50.801Z,12.60
2022-09-18T13:22:21.415Z,12.60
2022-09-18T13:24:56.091Z,12.60
2022-09-18T13:27:27.481Z,12.60
2022-09-18T13:29:59.540Z,12.60
2022-09-18T13:32:41.469Z,12.50
2022-09-18T13:35:22.543Z,12.60
2022-09-18T13:38:05.958Z,12.60
2022-09-18T13:40:37.369Z,12.50
2022-09-18T13:43:19.429Z,12.60
2022-09-18T13:45:51.566Z,12.60
2022-09-18T13:48:24.790Z,12.60
2022-09-18T13:50:58.394Z,12.70
2022-09-18T13:53:39.831Z,12.60
2022-09-18T13:56:10.405Z,12.70
2022-09-18T13:58:50.446Z,12.70
2022-09-18T14:01:55.649Z,12.70
2022-09-18T14:04:59.491Z,12.70
2022-09-18T14:08:04.970Z,12.70
2022-09-18T14:10:59.453Z,12.80
2022-09-18T14:13:51.589Z,12.70
2022-09-18T14:16:34.632Z,12.70
2022-09-18T14:19:06.176Z,12.70
2022-09-18T14:21:41.007Z,12.70
2022-09-18T14:24:57.168Z,12.70
2022-09-18T14:27:44.418Z,12.60
2022-09-18T14:30:36.240Z,12.60
2022-09-18T14:33:32.312Z,12.50
2022-09-18T14:36:15.962Z,12.60
2022-09-18T14:38:46.181Z,12.50
2022-09-18T14:41:41.552Z,12.50
2022-09-18T14:44:21.382Z,12.50
2022-09-18T14:47:04.262Z,12.40
2022-09-18T14:52:50.678Z,12.40
2022-09-18T14:55:23.071Z,12.40
2022-09-18T14:57:58.757Z,12.30
2022-09-18T15:00:30.780Z,12.20
2022-09-18T15:03:02.571Z,12.20
2022-09-18T15:05:33.198Z,12.30
2022-09-18T15:08:11.118Z,12.20
2022-09-18T15:10:42.050Z,11.70
2022-09-18T15:13:18.114Z,11.20
2022-09-18T15:15:58.086Z,11.00
2022-09-18T15:18:51.276Z,10.90
2022-09-18T15:21:33.391Z,10.80
2022-09-18T15:24:34.980Z,10.70
2022-09-18T15:27:22.559Z,10.60
2022-09-18T15:30:06.783Z,10.50
2022-09-18T15:33:03.358Z,10.50
2022-09-18T15:35:35.492Z,10.50
2022-09-18T15:38:27.939Z,10.40
2022-09-18T15:41:21.878Z,10.40
2022-09-18T15:45:00.403Z,10.40
2022-09-18T15:47:48.060Z,10.40
2022-09-18T15:51:04.455Z,10.30
2022-09-18T15:55:02.673Z,10.30
2022-09-18T15:57:34.909Z,10.30
2022-09-18T16:00:29.221Z,10.30
2022-09-18T16:06:25.395Z,10.30
2022-09-18T16:08:58.965Z,10.30
2022-09-18T16:11:52.502Z,10.30
2022-09-18T16:19:22.554Z,10.40
2022-09-18T16:22:26.588Z,10.40
2022-09-18T16:32:00.981Z,10.70
2022-09-18T16:40:54.913Z,10.80
2022-09-18T16:47:38.910Z,10.80
2022-09-18T16:50:35.054Z,10.90
2022-09-18T17:00:56.619Z,10.70
2022-09-18T17:03:28.657Z,10.50
2022-09-18T17:23:53.115Z,10.30
2022-09-18T17:38:08.436Z,10.10
2022-09-18T17:40:39.360Z,10.10
2022-09-18T17:43:08.228Z,10.00
2022-09-18T17:45:36.978Z,10.00
2022-09-18T17:48:17.248Z,10.00
2022-09-18T17:50:48.192Z,10.00
2022-09-18T17:53:21.241Z,10.00
2022-09-18T17:56:02.192Z,10.00
2022-09-18T17:58:38.872Z,10.00
2022-09-18T18:02:15.413Z,9.80
2022-09-18T18:05:01.782Z,9.90
2022-09-18T18:07:42.289Z,9.80
2022-09-18T18:10:33.500Z,9.80
2022-09-18T18:13:56.556Z,9.60
2022-09-18T18:16:17.389Z,9.60
2022-09-18T18:18:52.378Z,9.50
2022-09-18T18:21:50.609Z,9.60
2022-09-18T18:48:27.273Z,9.50
2022-09-18T19:35:31.184Z,9.30
2022-09-18T19:38:03.432Z,9.30
2022-09-18T19:40:45.544Z,9.40
2022-09-18T19:43:32.464Z,9.40
2022-09-18T19:46:06.647Z,9.40
2022-09-18T19:48:39.878Z,9.40
2022-09-18T19:51:17.323Z,9.40
2022-09-18T19:53:49.628Z,9.40
2022-09-18T19:56:41.574Z,9.50
2022-09-18T19:59:13.994Z,9.50
2022-09-18T20:01:43.501Z,9.40
2022-09-18T20:04:12.381Z,9.50
2022-09-18T20:06:42.615Z,9.60
2022-09-18T20:09:11.822Z,9.60
2022-09-18T20:11:40.500Z,9.70
2022-09-18T20:14:10.744Z,9.80
2022-09-18T20:16:39.643Z,9.80
2022-09-18T20:19:08.515Z,9.70
2022-09-18T20:21:37.510Z,9.70
2022-09-18T20:24:06.498Z,9.60
2022-09-18T20:26:35.100Z,9.70
2022-09-18T20:29:03.987Z,9.60
2022-09-18T20:31:34.548Z,9.60
2022-09-18T20:34:04.921Z,9.60
2022-09-18T20:36:33.822Z,9.60
2022-09-18T20:39:03.790Z,9.70
2022-09-18T20:41:32.384Z,9.70
2022-09-18T20:44:05.331Z,9.60
2022-09-18T20:46:37.507Z,9.70
2022-09-18T20:49:06.686Z,9.70
2022-09-18T20:51:36.142Z,9.70
2022-09-18T20:54:07.237Z,9.60
2022-09-18T20:56:41.511Z,9.70
2022-09-18T20:59:11.334Z,9.60
2022-09-18T21:01:42.455Z,9.60
2022-09-18T21:04:17.589Z,9.70
2022-09-18T21:06:55.550Z,9.60
2022-09-18T21:09:26.495Z,9.60
2022-09-18T21:11:57.050Z,9.60
2022-09-18T21:14:27.649Z,9.60
2022-09-18T21:16:58.125Z,9.70
2022-09-18T21:19:28.723Z,9.70
2022-09-18T21:21:57.528Z,9.70
2022-09-18T21:24:26.182Z,9.70
2022-09-18T21:26:54.912Z,9.70
2022-09-18T21:29:26.293Z,9.60
2022-09-18T21:31:58.782Z,9.60
2022-09-18T21:34:31.611Z,9.70
2022-09-18T21:37:01.777Z,9.60
2022-09-18T21:39:31.401Z,9.60
2022-09-18T21:42:01.991Z,9.60
2022-09-18T21:44:32.199Z,9.60
2022-09-18T21:47:05.259Z,9.50
2022-09-18T21:49:34.633Z,9.60
2022-09-18T21:52:05.819Z,9.50
2022-09-18T21:54:36.263Z,9.50
2022-09-18T21:57:06.054Z,9.50
2022-09-18T21:59:36.640Z,9.60
2022-09-18T22:02:09.039Z,9.60
2022-09-18T22:04:44.170Z,9.60
2022-09-18T22:07:12.836Z,9.60
2022-09-18T22:09:42.506Z,9.60
2022-09-18T22:12:12.424Z,9.50
2022-09-18T22:14:41.116Z,9.60
2022-09-18T22:17:12.315Z,9.70
2022-09-18T22:19:41.772Z,9.60
2022-09-18T22:22:11.375Z,9.60
2022-09-18T22:24:40.207Z,9.50
2022-09-18T22:27:08.991Z,9.50
2022-09-18T22:29:39.671Z,9.60
2022-09-18T22:32:10.228Z,9.60
2022-09-18T22:34:41.825Z,9.60
2022-09-18T22:37:12.162Z,9.70
2022-09-18T22:39:40.731Z,9.70
2022-09-18T22:42:09.458Z,9.80
2022-09-18T22:44:38.098Z,9.70
2022-09-18T22:47:06.756Z,9.80
2022-09-18T22:49:35.797Z,9.70
2022-09-18T22:52:06.637Z,9.70
2022-09-18T22:54:35.477Z,9.80
2022-09-18T22:57:04.269Z,9.80
2022-09-18T22:59:33.116Z,9.80
2022-09-18T23:02:04.238Z,9.80
2022-09-18T23:04:33.988Z,9.70
2022-09-18T23:07:03.784Z,9.80
2022-09-18T23:09:34.920Z,9.80
2022-09-18T23:12:05.045Z,9.80
2022-09-18T23:14:34.337Z,9.80
2022-09-18T23:17:03.668Z,9.80
2022-09-18T23:19:35.007Z,9.80
2022-09-18T23:22:03.817Z,9.80
2022-09-18T23:24:33.791Z,9.90
2022-09-18T23:27:03.005Z,9.80
2022-09-18T23:29:32.394Z,9.90
2022-09-18T23:32:01.083Z,9.90
2022-09-18T23:34:31.637Z,9.90
2022-09-18T23:37:03.261Z,9.90
2022-09-18T23:39:34.797Z,9.90
2022-09-18T23:42:05.874Z,9.90
2022-09-18T23:44:34.667Z,10.00
2022-09-18T23:47:37.437Z,9.90
2022-09-18T23:50:06.539Z,10.00
2022-09-18T23:52:35.031Z,9.90
2022-09-18T23:55:07.402Z,9.90
2022-09-18T23:57:36.069Z,9.90
